sensor_id;sensor_type;location;lat;lon;timestamp;pressure;altitude;pressure_sealevel;temperature;humidity
46007;BME280;31738;50.188;8.524;2023-03-14T00:01:17;96853.22;;;11.12;95.47
46007;BME280;31738;50.188;8.524;2023-03-14T00:03:45;96854.34;;;11.11;95.64
46007;BME280;31738;50.188;8.524;2023-03-14T00:06:20;96853.22;;;11.12;95.78
46007;BME280;31738;50.188;8.524;2023-03-14T00:08:46;96848.50;;;11.09;95.70
46007;BME280;31738;50.188;8.524;2023-03-14T00:11:20;96859.38;;;11.13;95.82
46007;BME280;31738;50.188;8.524;2023-03-14T00:13:50;96874.22;;;11.10;95.62
46007;BME280;31738;50.188;8.524;2023-03-14T00:16:20;96861.44;;;11.07;96.07
46007;BME280;31738;50.188;8.524;2023-03-14T00:18:46;96869.97;;;11.09;95.72
46007;BME280;31738;50.188;8.524;2023-03-14T00:21:17;96866.97;;;11.11;95.39
46007;BME280;31738;50.188;8.524;2023-03-14T00:23:43;96861.13;;;11.09;95.72
46007;BME280;31738;50.188;8.524;2023-03-14T00:26:19;96873.13;;;11.11;95.80
46007;BME280;31738;50.188;8.524;2023-03-14T00:28:46;96873.13;;;11.11;96.07
46007;BME280;31738;50.188;8.524;2023-03-14T00:31:14;96861.28;;;11.12;95.69
46007;BME280;31738;50.188;8.524;2023-03-14T00:33:44;96870.44;;;11.11;95.96
46007;BME280;31738;50.188;8.524;2023-03-14T00:36:12;96863.16;;;11.12;95.91
46007;BME280;31738;50.188;8.524;2023-03-14T00:38:40;96856.22;;;11.11;96.07
46007;BME280;31738;50.188;8.524;2023-03-14T00:41:11;96846.28;;;11.11;95.95
46007;BME280;31738;50.188;8.524;2023-03-14T00:43:38;96839.00;;;11.12;95.94
46007;BME280;31738;50.188;8.524;2023-03-14T00:46:04;96840.94;;;11.11;96.16
46007;BME280;31738;50.188;8.524;2023-03-14T00:48:30;96823.72;;;11.12;95.80
46007;BME280;31738;50.188;8.524;2023-03-14T00:50:55;96815.34;;;11.14;95.74
46007;BME280;31738;50.188;8.524;2023-03-14T00:53:21;96809.66;;;11.15;95.77
46007;BME280;31738;50.188;8.524;2023-03-14T00:55:47;96800.47;;;11.16;95.34
46007;BME280;31738;50.188;8.524;2023-03-14T00:58:15;96787.06;;;11.16;95.30
46007;BME280;31738;50.188;8.524;2023-03-14T01:00:42;96785.97;;;11.17;95.03
46007;BME280;31738;50.188;8.524;2023-03-14T01:03:09;96784.72;;;11.15;95.10
46007;BME280;31738;50.188;8.524;2023-03-14T01:05:40;96792.75;;;11.15;94.93
46007;BME280;31738;50.188;8.524;2023-03-14T01:08:07;96798.91;;;11.15;95.00
46007;BME280;31738;50.188;8.524;2023-03-14T01:10:34;96800.47;;;11.16;94.80
46007;BME280;31738;50.188;8.524;2023-03-14T01:13:04;96813.56;;;11.18;94.57
46007;BME280;31738;50.188;8.524;2023-03-14T01:15:33;96806.31;;;11.18;94.44
46007;BME280;31738;50.188;8.524;2023-03-14T01:18:02;96812.81;;;11.17;94.28
46007;BME280;31738;50.188;8.524;2023-03-14T01:20:28;96812.81;;;11.17;94.25
46007;BME280;31738;50.188;8.524;2023-03-14T01:22:53;96832.34;;;11.18;94.34
46007;BME280;31738;50.188;8.524;2023-03-14T01:25:19;96823.97;;;11.19;94.17
46007;BME280;31738;50.188;8.524;2023-03-14T01:27:44;96801.28;;;11.17;94.04
46007;BME280;31738;50.188;8.524;2023-03-14T01:30:11;96809.78;;;11.19;94.10
46007;BME280;31738;50.188;8.524;2023-03-14T01:32:55;96806.38;;;11.10;94.05
46007;BME280;31738;50.188;8.524;2023-03-14T01:35:21;96814.44;;;11.01;94.38
46007;BME280;31738;50.188;8.524;2023-03-14T01:37:47;96813.81;;;11.04;94.05
46007;BME280;31738;50.188;8.524;2023-03-14T01:40:18;96807.00;;;11.07;93.98
46007;BME280;31738;50.188;8.524;2023-03-14T01:42:46;96805.59;;;11.09;93.84
46007;BME280;31738;50.188;8.524;2023-03-14T01:48:24;96785.53;;;11.07;93.59
46007;BME280;31738;50.188;8.524;2023-03-14T01:51:02;96782.56;;;11.08;93.32
46007;BME280;31738;50.188;8.524;2023-03-14T01:53:28;96784.91;;;11.10;93.65
46007;BME280;31738;50.188;8.524;2023-03-14T01:56:00;96788.03;;;11.12;93.59
46007;BME280;31738;50.188;8.524;2023-03-14T01:58:28;96784.59;;;11.11;93.61
46007;BME280;31738;50.188;8.524;2023-03-14T02:01:00;96775.75;;;11.11;93.56
46007;BME280;31738;50.188;8.524;2023-03-14T02:03:29;96775.41;;;11.12;93.39
46007;BME280;31738;50.188;8.524;2023-03-14T02:05:59;96753.97;;;11.12;93.63
46007;BME280;31738;50.188;8.524;2023-03-14T02:08:30;96753.81;;;11.09;93.34
46007;BME280;31738;50.188;8.524;2023-03-14T02:11:00;96746.56;;;11.09;93.33
46007;BME280;31738;50.188;8.524;2023-03-14T02:13:56;96746.09;;;11.07;93.26
46007;BME280;31738;50.188;8.524;2023-03-14T02:16:42;96744.06;;;11.04;93.24
46007;BME280;31738;50.188;8.524;2023-03-14T02:19:53;96744.53;;;11.06;93.12
46007;BME280;31738;50.188;8.524;2023-03-14T02:22:34;96734.78;;;11.02;93.45
46007;BME280;31738;50.188;8.524;2023-03-14T02:25:15;96742.50;;;11.03;93.36
46007;BME280;31738;50.188;8.524;2023-03-14T02:27:48;96735.53;;;11.02;93.23
46007;BME280;31738;50.188;8.524;2023-03-14T02:30:25;96718.34;;;11.03;93.20
46007;BME280;31738;50.188;8.524;2023-03-14T02:32:55;96742.50;;;11.03;93.20
46007;BME280;31738;50.188;8.524;2023-03-14T02:35:28;96737.13;;;11.03;93.03
46007;BME280;31738;50.188;8.524;2023-03-14T02:37:59;96727.50;;;11.02;93.42
46007;BME280;31738;50.188;8.524;2023-03-14T02:40:34;96742.81;;;11.02;93.50
46007;BME280;31738;50.188;8.524;2023-03-14T02:43:00;96735.53;;;11.02;93.25
46007;BME280;31738;50.188;8.524;2023-03-14T02:45:38;96738.53;;;11.01;93.65
46007;BME280;31738;50.188;8.524;2023-03-14T02:48:09;96747.84;;;11.03;93.33
46007;BME280;31738;50.188;8.524;2023-03-14T02:51:00;96755.09;;;11.03;93.39
46007;BME280;31738;50.188;8.524;2023-03-14T02:53:48;96735.53;;;11.02;93.12
46007;BME280;31738;50.188;8.524;2023-03-14T03:00:19;96747.56;;;10.96;93.76
46007;BME280;31738;50.188;8.524;2023-03-14T03:02:56;96741.56;;;10.99;93.31
46007;BME280;31738;50.188;8.524;2023-03-14T03:05:29;96728.13;;;10.99;93.43
46007;BME280;31738;50.188;8.524;2023-03-14T03:08:03;96732.41;;;11.00;93.15
46007;BME280;31738;50.188;8.524;2023-03-14T03:10:32;96724.81;;;11.02;93.15
46007;BME280;31738;50.188;8.524;2023-03-14T03:12:58;96717.22;;;11.04;93.35
46007;BME280;31738;50.188;8.524;2023-03-14T03:15:52;96724.16;;;11.05;93.08
46007;BME280;31738;50.188;8.524;2023-03-14T03:18:23;96727.97;;;11.04;93.15
46007;BME280;31738;50.188;8.524;2023-03-14T03:21:02;96738.38;;;11.06;92.73
46007;BME280;31738;50.188;8.524;2023-03-14T03:23:34;96722.13;;;11.02;93.05
46007;BME280;31738;50.188;8.524;2023-03-14T03:25:59;96720.25;;;11.03;92.66
46007;BME280;31738;50.188;8.524;2023-03-14T03:28:25;96717.69;;;11.06;92.58
46007;BME280;31738;50.188;8.524;2023-03-14T03:31:07;96717.22;;;11.04;92.82
46007;BME280;31738;50.188;8.524;2023-03-14T03:33:41;96723.41;;;11.05;92.85
46007;BME280;31738;50.188;8.524;2023-03-14T03:36:32;96716.44;;;11.04;92.64
46007;BME280;31738;50.188;8.524;2023-03-14T03:39:17;96711.41;;;11.02;92.63
46007;BME280;31738;50.188;8.524;2023-03-14T03:41:46;96708.28;;;11.00;92.74
46007;BME280;31738;50.188;8.524;2023-03-14T03:44:11;96702.13;;;11.00;92.81
46007;BME280;31738;50.188;8.524;2023-03-14T03:46:40;96712.03;;;10.99;93.49
46007;BME280;31738;50.188;8.524;2023-03-14T03:49:07;96701.78;;;11.01;93.13
46007;BME280;31738;50.188;8.524;2023-03-14T03:51:33;96694.88;;;11.00;93.23
46007;BME280;31738;50.188;8.524;2023-03-14T03:53:59;96700.22;;;11.00;93.11
46007;BME280;31738;50.188;8.524;2023-03-14T03:56:29;96679.41;;;10.97;93.29
46007;BME280;31738;50.188;8.524;2023-03-14T03:58:54;96670.25;;;10.98;93.18
46007;BME280;31738;50.188;8.524;2023-03-14T04:01:20;96672.47;;;10.96;93.21
46007;BME280;31738;50.188;8.524;2023-03-14T04:03:49;96665.53;;;10.95;93.87
46007;BME280;31738;50.188;8.524;2023-03-14T04:06:14;96666.66;;;10.94;93.20
46007;BME280;31738;50.188;8.524;2023-03-14T04:08:43;96660.19;;;10.95;93.22
46007;BME280;31738;50.188;8.524;2023-03-14T04:11:17;96665.53;;;10.95;93.10
46007;BME280;31738;50.188;8.524;2023-03-14T04:13:51;96669.34;;;10.94;93.01
46007;BME280;31738;50.188;8.524;2023-03-14T04:16:23;96672.47;;;10.96;92.85
46007;BME280;31738;50.188;8.524;2023-03-14T04:18:51;96670.91;;;10.95;93.00
46007;BME280;31738;50.188;8.524;2023-03-14T04:21:20;96667.91;;;10.97;93.06
46007;BME280;31738;50.188;8.524;2023-03-14T04:23:49;96674.06;;;10.97;93.00
46007;BME280;31738;50.188;8.524;2023-03-14T04:26:16;96664.09;;;10.98;92.63
46007;BME280;31738;50.188;8.524;2023-03-14T04:28:41;96668.69;;;10.97;92.85
46007;BME280;31738;50.188;8.524;2023-03-14T04:31:10;96666.78;;;10.98;92.59
46007;BME280;31738;50.188;8.524;2023-03-14T04:33:35;96663.34;;;10.97;92.64
46007;BME280;31738;50.188;8.524;2023-03-14T04:36:03;96661.09;;;10.99;92.54
46007;BME280;31738;50.188;8.524;2023-03-14T04:38:29;96660.31;;;10.99;92.59
46007;BME280;31738;50.188;8.524;2023-03-14T04:40:57;96660.44;;;11.02;92.58
46007;BME280;31738;50.188;8.524;2023-03-14T04:43:30;96660.97;;;10.96;92.50
46007;BME280;31738;50.188;8.524;2023-03-14T04:46:02;96664.09;;;10.98;92.48
46007;BME280;31738;50.188;8.524;2023-03-14T04:48:28;96664.41;;;10.96;92.37
46007;BME280;31738;50.188;8.524;2023-03-14T04:50:54;96666.00;;;10.97;92.45
46007;BME280;31738;50.188;8.524;2023-03-14T04:53:20;96648.31;;;10.96;92.33
46007;BME280;31738;50.188;8.524;2023-03-14T04:55:52;96653.38;;;10.98;92.20
46007;BME280;31738;50.188;8.524;2023-03-14T04:58:21;96652.59;;;10.97;92.29
46007;BME280;31738;50.188;8.524;2023-03-14T05:00:48;96649.44;;;10.95;92.11
46007;BME280;31738;50.188;8.524;2023-03-14T05:03:33;96652.47;;;10.94;92.29
46007;BME280;31738;50.188;8.524;2023-03-14T05:06:18;96644.34;;;10.82;92.42
46007;BME280;31738;50.188;8.524;2023-03-14T05:09:03;96654.00;;;10.74;92.62
46007;BME280;31738;50.188;8.524;2023-03-14T05:11:35;96643.72;;;10.76;92.37
46007;BME280;31738;50.188;8.524;2023-03-14T05:14:13;96652.72;;;10.80;92.49
46007;BME280;31738;50.188;8.524;2023-03-14T05:16:57;96646.88;;;10.78;92.35
46007;BME280;31738;50.188;8.524;2023-03-14T05:19:35;96651.25;;;10.83;92.23
46007;BME280;31738;50.188;8.524;2023-03-14T05:22:12;96645.56;;;10.84;91.99
46007;BME280;31738;50.188;8.524;2023-03-14T05:24:54;96646.69;;;10.83;92.18
46007;BME280;31738;50.188;8.524;2023-03-14T05:27:42;96642.47;;;10.82;91.79
46007;BME280;31738;50.188;8.524;2023-03-14T05:30:27;96645.13;;;10.82;92.07
46007;BME280;31738;50.188;8.524;2023-03-14T05:33:11;96630.47;;;10.80;91.86
46007;BME280;31738;50.188;8.524;2023-03-14T05:35:56;96633.63;;;10.82;91.80
46007;BME280;31738;50.188;8.524;2023-03-14T05:38:41;96627.00;;;10.79;91.48
46007;BME280;31738;50.188;8.524;2023-03-14T05:41:21;96637.72;;;10.79;91.49
46007;BME280;31738;50.188;8.524;2023-03-14T05:44:05;96626.56;;;10.77;92.06
46007;BME280;31738;50.188;8.524;2023-03-14T05:46:53;96619.59;;;10.76;91.63
46007;BME280;31738;50.188;8.524;2023-03-14T05:49:36;96626.56;;;10.77;91.89
46007;BME280;31738;50.188;8.524;2023-03-14T05:52:18;96623.88;;;10.77;91.59
46007;BME280;31738;50.188;8.524;2023-03-14T05:54:56;96631.13;;;10.77;91.22
46007;BME280;31738;50.188;8.524;2023-03-14T05:57:47;96631.91;;;10.77;91.20
46007;BME280;31738;50.188;8.524;2023-03-14T06:00:26;96628.09;;;10.78;90.92
46007;BME280;31738;50.188;8.524;2023-03-14T06:03:11;96631.91;;;10.77;91.00
46007;BME280;31738;50.188;8.524;2023-03-14T06:05:41;96628.09;;;10.78;90.83
46007;BME280;31738;50.188;8.524;2023-03-14T06:08:06;96631.25;;;10.80;90.70
46007;BME280;31738;50.188;8.524;2023-03-14T06:10:32;96616.72;;;10.81;90.70
46007;BME280;31738;50.188;8.524;2023-03-14T06:12:59;96617.53;;;10.82;90.92
46007;BME280;31738;50.188;8.524;2023-03-14T06:15:25;96619.88;;;10.83;90.83
46007;BME280;31738;50.188;8.524;2023-03-14T06:17:56;96618.44;;;10.86;90.79
46007;BME280;31738;50.188;8.524;2023-03-14T06:20:22;96618.75;;;10.84;90.46
46007;BME280;31738;50.188;8.524;2023-03-14T06:22:48;96622.25;;;10.85;90.68
46007;BME280;31738;50.188;8.524;2023-03-14T06:25:14;96616.09;;;10.84;90.48
46007;BME280;31738;50.188;8.524;2023-03-14T06:27:43;96621.44;;;10.84;90.41
46007;BME280;31738;50.188;8.524;2023-03-14T06:30:09;96627.59;;;10.85;90.64
46007;BME280;31738;50.188;8.524;2023-03-14T06:32:35;96621.44;;;10.84;90.49
46007;BME280;31738;50.188;8.524;2023-03-14T06:35:06;96614.53;;;10.83;90.67
46007;BME280;31738;50.188;8.524;2023-03-14T06:37:35;96603.31;;;10.81;90.16
46007;BME280;31738;50.188;8.524;2023-03-14T06:40:01;96604.59;;;10.84;90.38
46007;BME280;31738;50.188;8.524;2023-03-14T06:42:46;96595.59;;;10.80;90.53
46007;BME280;31738;50.188;8.524;2023-03-14T06:45:14;96598.75;;;10.82;90.41
46007;BME280;31738;50.188;8.524;2023-03-14T06:47:39;96598.44;;;10.83;90.39
46007;BME280;31738;50.188;8.524;2023-03-14T06:50:06;96589.25;;;10.84;90.48
46007;BME280;31738;50.188;8.524;2023-03-14T06:52:32;96601.13;;;10.83;90.21
46007;BME280;31738;50.188;8.524;2023-03-14T06:54:58;96591.19;;;10.84;90.29
46007;BME280;31738;50.188;8.524;2023-03-14T06:57:26;96589.25;;;10.84;89.94
46007;BME280;31738;50.188;8.524;2023-03-14T06:59:51;96596.22;;;10.85;90.16
46007;BME280;31738;50.188;8.524;2023-03-14T07:02:17;96597.31;;;10.84;90.42
46007;BME280;31738;50.188;8.524;2023-03-14T07:04:43;96606.16;;;10.85;90.32
46007;BME280;31738;50.188;8.524;2023-03-14T07:07:09;96605.81;;;10.86;90.37
46007;BME280;31738;50.188;8.524;2023-03-14T07:09:35;96607.38;;;10.87;90.29
46007;BME280;31738;50.188;8.524;2023-03-14T07:12:02;96601.59;;;10.85;90.50
46007;BME280;31738;50.188;8.524;2023-03-14T07:14:29;96609.63;;;10.85;90.48
46007;BME280;31738;50.188;8.524;2023-03-14T07:16:55;96613.88;;;10.86;90.31
46007;BME280;31738;50.188;8.524;2023-03-14T07:19:21;96609.63;;;10.85;90.04
46007;BME280;31738;50.188;8.524;2023-03-14T07:21:46;96613.88;;;10.86;90.39
46007;BME280;31738;50.188;8.524;2023-03-14T07:24:14;96619.69;;;10.88;90.30
46007;BME280;31738;50.188;8.524;2023-03-14T07:26:39;96617.00;;;10.88;90.27
46007;BME280;31738;50.188;8.524;2023-03-14T07:29:05;96621.25;;;10.89;90.08
46007;BME280;31738;50.188;8.524;2023-03-14T07:31:31;96622.38;;;10.88;90.24
46007;BME280;31738;50.188;8.524;2023-03-14T07:33:57;96617.78;;;10.89;90.17
46007;BME280;31738;50.188;8.524;2023-03-14T07:36:26;96618.56;;;10.89;90.13
46007;BME280;31738;50.188;8.524;2023-03-14T07:38:52;96619.69;;;10.88;90.07
46007;BME280;31738;50.188;8.524;2023-03-14T07:41:36;96624.25;;;10.88;90.51
46007;BME280;31738;50.188;8.524;2023-03-14T07:44:35;96620.34;;;10.85;90.32
46007;BME280;31738;50.188;8.524;2023-03-14T07:47:00;96626.16;;;10.87;90.54
46007;BME280;31738;50.188;8.524;2023-03-14T07:49:26;96613.22;;;10.89;90.55
46007;BME280;31738;50.188;8.524;2023-03-14T07:51:52;96620.13;;;10.90;90.57
46007;BME280;31738;50.188;8.524;2023-03-14T07:54:17;96621.25;;;10.89;90.38
46007;BME280;31738;50.188;8.524;2023-03-14T07:56:43;96620.13;;;10.90;90.53
46007;BME280;31738;50.188;8.524;2023-03-14T07:59:08;96618.56;;;10.89;90.61
46007;BME280;31738;50.188;8.524;2023-03-14T08:01:34;96622.06;;;10.90;90.64
46007;BME280;31738;50.188;8.524;2023-03-14T08:03:59;96619.38;;;10.90;90.79
46007;BME280;31738;50.188;8.524;2023-03-14T08:06:25;96613.69;;;10.91;90.70
46007;BME280;31738;50.188;8.524;2023-03-14T08:08:50;96617.91;;;10.92;90.70
46007;BME280;31738;50.188;8.524;2023-03-14T08:11:16;96614.13;;;10.93;90.78
46007;BME280;31738;50.188;8.524;2023-03-14T08:13:41;96618.72;;;10.93;90.69
46007;BME280;31738;50.188;8.524;2023-03-14T08:16:07;96614.91;;;10.94;91.08
46007;BME280;31738;50.188;8.524;2023-03-14T08:18:33;96604.97;;;10.94;91.08
46007;BME280;31738;50.188;8.524;2023-03-14T08:20:59;96610.34;;;10.94;91.00
46007;BME280;31738;50.188;8.524;2023-03-14T08:23:24;96614.13;;;10.93;91.37
46007;BME280;31738;50.188;8.524;2023-03-14T08:25:50;96611.91;;;10.95;91.34
46007;BME280;31738;50.188;8.524;2023-03-14T08:28:16;96611.91;;;10.95;91.61
46007;BME280;31738;50.188;8.524;2023-03-14T08:30:42;96606.53;;;10.95;91.53
46007;BME280;31738;50.188;8.524;2023-03-14T08:33:09;96615.81;;;10.98;91.73
46007;BME280;31738;50.188;8.524;2023-03-14T08:35:34;96612.81;;;10.99;91.66
46007;BME280;31738;50.188;8.524;2023-03-14T08:38:03;96612.81;;;10.99;92.00
46007;BME280;31738;50.188;8.524;2023-03-14T08:40:28;96617.50;;;11.02;91.91
46007;BME280;31738;50.188;8.524;2023-03-14T08:42:54;96616.41;;;11.03;91.90
46007;BME280;31738;50.188;8.524;2023-03-14T08:45:19;96606.94;;;11.06;91.60
46007;BME280;31738;50.188;8.524;2023-03-14T08:47:45;96610.06;;;11.08;91.84
46007;BME280;31738;50.188;8.524;2023-03-14T08:50:11;96616.22;;;11.08;91.65
46007;BME280;31738;50.188;8.524;2023-03-14T08:52:38;96627.06;;;11.12;91.76
46007;BME280;31738;50.188;8.524;2023-03-14T08:55:06;96624.06;;;11.13;91.61
46007;BME280;31738;50.188;8.524;2023-03-14T08:57:32;96621.84;;;11.15;91.32
46007;BME280;31738;50.188;8.524;2023-03-14T08:59:58;96621.84;;;11.15;91.55
46007;BME280;31738;50.188;8.524;2023-03-14T09:02:25;96622.31;;;11.17;91.32
46007;BME280;31738;50.188;8.524;2023-03-14T09:04:51;96616.63;;;11.19;91.46
46007;BME280;31738;50.188;8.524;2023-03-14T09:07:17;96625.91;;;11.21;91.51
46007;BME280;31738;50.188;8.524;2023-03-14T09:09:43;96624.34;;;11.20;91.65
46007;BME280;31738;50.188;8.524;2023-03-14T09:12:09;96627.34;;;11.19;91.61
46007;BME280;31738;50.188;8.524;2023-03-14T09:14:34;96624.66;;;11.19;91.71
46007;BME280;31738;50.188;8.524;2023-03-14T09:17:00;96628.09;;;11.19;91.84
46007;BME280;31738;50.188;8.524;2023-03-14T09:19:25;96620.53;;;11.21;91.75
46007;BME280;31738;50.188;8.524;2023-03-14T09:21:51;96628.25;;;11.23;91.97
46007;BME280;31738;50.188;8.524;2023-03-14T09:24:16;96619.88;;;11.24;92.18
46007;BME280;31738;50.188;8.524;2023-03-14T09:26:42;96625.69;;;11.26;92.40
46007;BME280;31738;50.188;8.524;2023-03-14T09:29:08;96619.22;;;11.27;92.37
46007;BME280;31738;50.188;8.524;2023-03-14T09:31:34;96618.09;;;11.28;92.35
46007;BME280;31738;50.188;8.524;2023-03-14T09:34:00;96630.41;;;11.29;92.56
46007;BME280;31738;50.188;8.524;2023-03-14T09:36:26;96625.47;;;11.31;93.18
46007;BME280;31738;50.188;8.524;2023-03-14T09:38:51;96622.47;;;11.33;93.39
46007;BME280;31738;50.188;8.524;2023-03-14T09:43:49;96620.72;;;11.37;93.36
46007;BME280;31738;50.188;8.524;2023-03-14T09:46:19;96616.56;;;11.39;93.59
46007;BME280;31738;50.188;8.524;2023-03-14T09:48:45;96611.00;;;11.44;93.62
46007;BME280;31738;50.188;8.524;2023-03-14T09:51:17;96604.78;;;11.52;93.28
46007;BME280;31738;50.188;8.524;2023-03-14T09:53:45;96608.03;;;11.58;93.46
46007;BME280;31738;50.188;8.524;2023-03-14T09:56:16;96592.72;;;11.58;93.53
46007;BME280;31738;50.188;8.524;2023-03-14T09:58:44;96595.72;;;11.57;93.80
46007;BME280;31738;50.188;8.524;2023-03-14T10:01:15;96594.94;;;11.56;93.71
46007;BME280;31738;50.188;8.524;2023-03-14T10:03:44;96595.41;;;11.58;93.96
46007;BME280;31738;50.188;8.524;2023-03-14T10:06:14;96591.25;;;11.61;94.07
46007;BME280;31738;50.188;8.524;2023-03-14T10:08:44;96595.66;;;11.65;94.26
46007;BME280;31738;50.188;8.524;2023-03-14T10:11:17;96595.31;;;11.67;94.03
46007;BME280;31738;50.188;8.524;2023-03-14T10:14:02;96597.69;;;11.68;93.95
46007;BME280;31738;50.188;8.524;2023-03-14T10:16:50;96598.34;;;11.65;94.31
46007;BME280;31738;50.188;8.524;2023-03-14T10:19:16;96597.56;;;11.65;94.32
46007;BME280;31738;50.188;8.524;2023-03-14T10:21:44;96597.25;;;11.66;94.04
46007;BME280;31738;50.188;8.524;2023-03-14T10:24:19;96596.91;;;11.68;94.20
46007;BME280;31738;50.188;8.524;2023-03-14T10:26:49;96596.13;;;11.67;94.36
46007;BME280;31738;50.188;8.524;2023-03-14T10:29:15;96592.31;;;11.68;94.34
46007;BME280;31738;50.188;8.524;2023-03-14T10:31:58;96592.09;;;11.73;94.31
46007;BME280;31738;50.188;8.524;2023-03-14T10:34:38;96596.34;;;11.74;94.43
46007;BME280;31738;50.188;8.524;2023-03-14T10:37:21;96601.38;;;11.76;94.53
46007;BME280;31738;50.188;8.524;2023-03-14T10:39:54;96590.97;;;11.74;94.36
46007;BME280;31738;50.188;8.524;2023-03-14T10:42:30;96595.59;;;11.74;94.40
46007;BME280;31738;50.188;8.524;2023-03-14T10:44:59;96600.94;;;11.74;94.75
46007;BME280;31738;50.188;8.524;2023-03-14T10:47:26;96598.69;;;11.76;94.58
46007;BME280;31738;50.188;8.524;2023-03-14T10:49:54;96593.78;;;11.78;94.58
46007;BME280;31738;50.188;8.524;2023-03-14T10:52:21;96598.38;;;11.77;94.53
46007;BME280;31738;50.188;8.524;2023-03-14T10:54:54;96594.91;;;11.77;94.40
46007;BME280;31738;50.188;8.524;2023-03-14T10:57:20;96594.78;;;11.73;94.78
46007;BME280;31738;50.188;8.524;2023-03-14T10:59:46;96595.25;;;11.75;94.77
46007;BME280;31738;50.188;8.524;2023-03-14T11:05:02;96597.00;;;11.71;94.93
46007;BME280;31738;50.188;8.524;2023-03-14T11:07:41;96595.59;;;11.74;94.68
46007;BME280;31738;50.188;8.524;2023-03-14T11:10:28;96589.88;;;11.75;94.86
46007;BME280;31738;50.188;8.524;2023-03-14T11:13:30;96594.13;;;11.76;94.86
46007;BME280;31738;50.188;8.524;2023-03-14T11:16:39;96593.66;;;11.74;94.69
46007;BME280;31738;50.188;8.524;2023-03-14T11:22:14;96592.31;;;11.68;95.25
46007;BME280;31738;50.188;8.524;2023-03-14T11:24:52;96594.56;;;11.66;95.16
46007;BME280;31738;50.188;8.524;2023-03-14T11:27:30;96601.50;;;11.67;95.50
46007;BME280;31738;50.188;8.524;2023-03-14T11:32:46;96593.56;;;11.71;95.34
46007;BME280;31738;50.188;8.524;2023-03-14T11:35:25;96596.34;;;11.74;95.45
46007;BME280;31738;50.188;8.524;2023-03-14T11:38:04;96598.81;;;11.79;95.61
46007;BME280;31738;50.188;8.524;2023-03-14T11:40:31;96596.59;;;11.81;95.63
46007;BME280;31738;50.188;8.524;2023-03-14T11:43:20;96590.34;;;11.89;95.47
46007;BME280;31738;50.188;8.524;2023-03-14T11:45:50;96585.19;;;11.84;95.88
46007;BME280;31738;50.188;8.524;2023-03-14T11:48:23;96588.31;;;11.86;95.87
46007;BME280;31738;50.188;8.524;2023-03-14T11:50:52;96576.13;;;11.89;95.86
46007;BME280;31738;50.188;8.524;2023-03-14T11:53:25;96574.00;;;11.94;95.83
46007;BME280;31738;50.188;8.524;2023-03-14T11:55:55;96601.78;;;11.98;95.76
46007;BME280;31738;50.188;8.524;2023-03-14T11:58:29;96721.06;;;11.97;95.68
46007;BME280;31738;50.188;8.524;2023-03-14T12:00:57;96693.63;;;11.80;94.51
46007;BME280;31738;50.188;8.524;2023-03-14T12:03:34;96706.13;;;11.55;93.64
46007;BME280;31738;50.188;8.524;2023-03-14T12:06:28;96728.38;;;11.35;92.94
46007;BME280;31738;50.188;8.524;2023-03-14T12:09:01;96736.09;;;11.16;92.05
46007;BME280;31738;50.188;8.524;2023-03-14T12:14:01;96718.78;;;10.85;92.18
46007;BME280;31738;50.188;8.524;2023-03-14T12:16:32;96733.50;;;10.70;91.48
46007;BME280;31738;50.188;8.524;2023-03-14T12:19:13;96729.16;;;10.57;90.17
46007;BME280;31738;50.188;8.524;2023-03-14T12:21:56;96705.59;;;10.42;90.59
46007;BME280;31738;50.188;8.524;2023-03-14T12:24:26;96728.59;;;10.43;90.68
46007;BME280;31738;50.188;8.524;2023-03-14T12:27:00;96733.78;;;10.48;90.89
46007;BME280;31738;50.188;8.524;2023-03-14T12:29:27;96754.09;;;10.49;90.48
46007;BME280;31738;50.188;8.524;2023-03-14T12:32:24;96761.81;;;10.51;89.95
46007;BME280;31738;50.188;8.524;2023-03-14T12:34:50;96785.63;;;10.52;90.45
46007;BME280;31738;50.188;8.524;2023-03-14T12:37:37;96802.28;;;10.66;90.43
46007;BME280;31738;50.188;8.524;2023-03-14T12:43:00;96834.09;;;10.85;89.71
46007;BME280;31738;50.188;8.524;2023-03-14T12:45:33;96845.41;;;10.90;89.53
46007;BME280;31738;50.188;8.524;2023-03-14T12:50:54;96870.47;;;11.03;89.26
46007;BME280;31738;50.188;8.524;2023-03-14T12:53:40;96884.19;;;11.01;88.97
46007;BME280;31738;50.188;8.524;2023-03-14T12:56:25;96908.38;;;10.84;88.67
46007;BME280;31738;50.188;8.524;2023-03-14T13:01:35;96919.44;;;10.83;88.71
46007;BME280;31738;50.188;8.524;2023-03-14T13:04:09;96949.56;;;10.88;88.84
46007;BME280;31738;50.188;8.524;2023-03-14T13:11:53;96985.84;;;10.94;87.42
46007;BME280;31738;50.188;8.524;2023-03-14T13:14:20;96995.13;;;10.97;87.33
46007;BME280;31738;50.188;8.524;2023-03-14T13:16:49;97019.13;;;11.02;87.42
46007;BME280;31738;50.188;8.524;2023-03-14T13:19:24;97026.97;;;11.07;85.93
46007;BME280;31738;50.188;8.524;2023-03-14T13:22:01;97041.66;;;11.09;85.71
46007;BME280;31738;50.188;8.524;2023-03-14T13:24:27;97053.34;;;11.13;85.70
46007;BME280;31738;50.188;8.524;2023-03-14T13:26:54;97051.13;;;11.15;85.53
46007;BME280;31738;50.188;8.524;2023-03-14T13:29:28;97070.53;;;11.21;85.11
46007;BME280;31738;50.188;8.524;2023-03-14T13:31:58;97085.69;;;11.25;85.25
46007;BME280;31738;50.188;8.524;2023-03-14T13:34:32;97088.03;;;11.35;84.92
46007;BME280;31738;50.188;8.524;2023-03-14T13:36:59;97101.94;;;11.37;84.64
46007;BME280;31738;50.188;8.524;2023-03-14T13:39:26;97122.78;;;11.40;84.61
46007;BME280;31738;50.188;8.524;2023-03-14T13:41:55;97150.72;;;11.31;84.34
46007;BME280;31738;50.188;8.524;2023-03-14T13:44:26;97166.03;;;11.13;84.08
46007;BME280;31738;50.188;8.524;2023-03-14T13:46:57;97166.00;;;10.96;84.35
46007;BME280;31738;50.188;8.524;2023-03-14T13:49:24;97167.13;;;10.95;85.01
46007;BME280;31738;50.188;8.524;2023-03-14T13:51:51;97173.44;;;10.99;84.96
46007;BME280;31738;50.188;8.524;2023-03-14T13:54:21;97172.47;;;11.04;84.71
46007;BME280;31738;50.188;8.524;2023-03-14T13:56:48;97184.47;;;10.98;84.79